Terminal Aerodrome Forecast
Issued by NWS Charleston, WV

Current Version | Previous Version | Graphics & Text | Print | Product List | Glossary On
Versions: 1 2 3 4 5 6 7 8 9 10 11 12 13 14 15 16 17 18 19 20 21 22 23 24 25 26
000
FTUS41 KRLX 280013 AAA
TAFCRW
TAF AMD
KCRW 280013Z 2800/2824 VRB03KT P6SM SCT030 BKN080
     FM280200 00000KT 6SM HZ BKN040
     FM280400 00000KT 4SM BR BKN040
     FM280700 00000KT 1 1/2SM BR BKN080
     FM280800 VRB03KT 1/4SM FG VV001
     FM281300 00000KT 4SM HZ SCT010
     FM281400 00000KT 6SM HZ SCT035
     FM281500 00000KT P6SM SCT035=

USA.gov is the U.S. government's official web portal to all federal, state and local government web resources and services.